This is the latest recevied weather packets stored in our database for station/object OK9AIR. If no packets are shown the sender has not sent any weather packets the latest 10 day(s).
| Time | Temp. | Humidity | Pressure | Rain* | Wind** | Luminosity | Snow |
|---|---|---|---|---|---|---|---|
| 1778356887 | 11.11° C | 76% | 973.7 hPa | - | - | - | - |
| 1778356761 | 11.67° C | 75% | 973.7 hPa | - | - | - | - |
| 1778356698 | 11.11° C | 75% | 973.7 hPa | - | - | - | - |
| 1778355798 | 11.67° C | 72% | 973.6 hPa | - | - | - | - |
| 1778355736 | 11.11° C | 73% | 973.6 hPa | - | - | - | - |
| 1778354839 | 11.67° C | 71% | 973.6 hPa | - | - | - | - |
| 1778354775 | 11.67° C | 72% | 973.5 hPa | - | - | - | - |
| 1778353871 | 12.22° C | 71% | 973.5 hPa | - | - | - | - |
| 1778353809 | 11.67° C | 72% | 973.4 hPa | - | - | - | - |
| 1778352911 | 12.22° C | 70% | 973.3 hPa | - | - | - | - |
| 1778352848 | 12.22° C | 70% | 973.3 hPa | - | - | - | - |
| 1778351948 | 12.78° C | 68% | 973.3 hPa | - | - | - | - |
| 1778351885 | 12.22° C | 69% | 973.2 hPa | - | - | - | - |
| 1778350985 | 12.78° C | 67% | 973.2 hPa | - | - | - | - |
| 1778350923 | 12.78° C | 67% | 973.2 hPa | - | - | - | - |
| 1778350024 | 13.33° C | 62% | 973.3 hPa | - | - | - | - |
| 1778349961 | 12.78° C | 63% | 973.2 hPa | - | - | - | - |
| 1778349063 | 13.89° C | 61% | 973.2 hPa | - | - | - | - |
| 1778349000 | 13.33° C | 62% | 973.2 hPa | - | - | - | - |
| 1778348100 | 13.89° C | 59% | 973.1 hPa | - | - | - | - |
| 1778348037 | 13.89° C | 60% | 973.1 hPa | - | - | - | - |
| 1778347139 | 14.44° C | 58% | 973.1 hPa | - | - | - | - |
| 1778347076 | 13.89° C | 58% | 973.1 hPa | - | - | - | - |
| 1778346176 | 14.44° C | 56% | 973.1 hPa | - | - | - | - |
| 1778346113 | 14.44° C | 56% | 973.1 hPa | - | - | - | - |
* Rain since midnight (hover to see other rain measurements)
** Current wind speed in m/s (hover to see current wind gust speed)